Time;durP1;ratioP1;P1;durP2;ratioP2;P2;SDS_P1;SDS_P2;PMS_P1;PMS_P2;Temp;Humidity;BMP_temperature;BMP_pressure;BME280_temperature;BME280_humidity;BME280_pressure;Samples;Min_cycle;Max_cycle;Signal;HPM_P1;HPM_P2
2024/02/07 00:00:12;;;;;;;;;14.00;14.00;;;;;16.68;100.00;100783.94;2115899;27;46195;-57
2024/02/07 00:01:13;;;;;;;;;15.25;14.00;;;;;16.69;100.00;100789.22;2117278;27;45585;-57
2024/02/07 00:02:13;;;;;;;;;12.67;11.00;;;;;16.70;100.00;100790.09;2116596;27;46799;-58
2024/02/07 00:03:13;;;;;;;;;12.00;12.00;;;;;16.67;100.00;100787.53;2116107;27;46440;-57
2024/02/07 00:04:14;;;;;;;;;13.33;12.33;;;;;16.64;100.00;100793.00;2117487;27;46747;-55
2024/02/07 00:05:14;;;;;;;;;14.00;11.33;;;;;16.67;100.00;100784.84;2116394;27;45720;-57
2024/02/07 00:06:16;;;;;;;;;15.00;15.00;;;;;16.64;100.00;100777.84;2116162;27;46944;-56
2024/02/07 00:07:16;;;;;;;;;13.75;12.00;;;;;16.49;100.00;100786.53;2114603;27;46361;-56
2024/02/07 00:08:17;;;;;;;;;14.00;12.33;;;;;16.51;100.00;100781.97;2116728;27;46505;-57
2024/02/07 00:09:17;;;;;;;;;10.00;10.00;;;;;16.50;100.00;100793.63;2116566;27;46700;-55
2024/02/07 00:10:18;;;;;;;;;12.67;11.00;;;;;16.52;100.00;100780.19;2116219;27;46614;-57
2024/02/07 00:11:18;;;;;;;;;14.33;13.00;;;;;16.44;100.00;100783.22;2116175;27;46481;-57
2024/02/07 00:12:18;;;;;;;;;11.33;10.00;;;;;16.51;100.00;100776.63;2117500;27;46067;-55
2024/02/07 00:13:19;;;;;;;;;13.33;11.67;;;;;16.49;100.00;100784.72;2116822;27;46720;-57
2024/02/07 00:14:19;;;;;;;;;13.00;11.00;;;;;16.47;100.00;100785.75;2116856;27;46268;-57
2024/02/07 00:15:20;;;;;;;;;11.00;11.00;;;;;16.46;100.00;100778.66;2117551;27;46068;-55
2024/02/07 00:16:21;;;;;;;;;11.25;10.75;;;;;16.47;100.00;100786.63;2116282;27;46473;-53
2024/02/07 00:17:21;;;;;;;;;14.00;13.00;;;;;16.47;100.00;100775.91;2116565;27;46610;-54
2024/02/07 00:18:21;;;;;;;;;10.00;10.00;;;;;16.46;100.00;100776.84;2116718;27;46578;-56
2024/02/07 00:19:22;;;;;;;;;12.33;12.33;;;;;16.48;100.00;100768.72;2116117;27;46723;-55
2024/02/07 00:20:22;;;;;;;;;10.00;10.00;;;;;16.48;100.00;100776.75;2117382;27;46160;-55
2024/02/07 00:21:22;;;;;;;;;12.67;11.00;;;;;16.49;100.00;100778.50;2116738;27;46361;-55
2024/02/07 00:22:23;;;;;;;;;11.00;11.00;;;;;16.47;100.00;100767.00;2117346;27;46863;-55
2024/02/07 00:23:23;;;;;;;;;12.00;11.00;;;;;16.48;100.00;100772.28;2114315;27;46411;-55
2024/02/07 00:24:23;;;;;;;;;11.67;11.67;;;;;16.36;100.00;100759.44;2115513;27;45944;-56
2024/02/07 00:25:24;;;;;;;;;15.00;11.33;;;;;16.45;100.00;100760.84;2117086;27;46254;-55
2024/02/07 00:26:25;;;;;;;;;11.00;11.00;;;;;16.42;100.00;100759.19;2116673;27;46374;-57
2024/02/07 00:27:25;;;;;;;;;10.00;9.67;;;;;16.50;100.00;100764.16;2116871;27;47149;-58
2024/02/07 00:28:25;;;;;;;;;10.33;9.67;;;;;16.54;100.00;100755.06;2117594;27;46777;-56
2024/02/07 00:29:25;;;;;;;;;10.00;9.00;;;;;16.56;100.00;100755.00;2115550;27;46294;-58
2024/02/07 00:30:26;;;;;;;;;12.33;12.33;;;;;16.57;100.00;100759.41;2115364;27;46267;-57
2024/02/07 00:31:26;;;;;;;;;11.67;10.67;;;;;16.52;100.00;100751.59;2115297;27;46866;-56
2024/02/07 00:32:27;;;;;;;;;10.33;9.67;;;;;16.45;100.00;100753.66;2116485;27;46164;-58
2024/02/07 00:33:27;;;;;;;;;10.00;10.00;;;;;16.48;100.00;100741.94;2117291;27;46326;-56
2024/02/07 00:34:28;;;;;;;;;11.00;11.00;;;;;16.48;100.00;100742.81;2116099;27;46201;-55
2024/02/07 00:35:28;;;;;;;;;14.00;12.67;;;;;16.52;100.00;100753.41;2117491;27;46345;-57
2024/02/07 00:36:28;;;;;;;;;10.33;10.33;;;;;16.48;100.00;100745.50;2116289;27;46472;-58
2024/02/07 00:37:29;;;;;;;;;11.00;10.67;;;;;16.48;100.00;100747.28;2089825;28;45808;-58
2024/02/07 00:38:30;;;;;;;;;12.00;11.00;;;;;16.36;100.00;100734.47;2090245;28;46442;-57
2024/02/07 00:39:30;;;;;;;;;9.33;9.33;;;;;16.42;100.00;100740.44;2116587;27;46590;-57
2024/02/07 00:40:30;;;;;;;;;9.50;9.50;;;;;16.39;100.00;100737.91;2116269;27;46205;-56
2024/02/07 00:41:31;;;;;;;;;9.33;9.33;;;;;16.37;100.00;100752.28;2115554;27;46411;-54
2024/02/07 00:42:31;;;;;;;;;11.67;11.67;;;;;16.40;100.00;100739.63;2107157;27;45957;-57
2024/02/07 00:43:32;;;;;;;;;12.67;10.33;;;;;16.40;100.00;100731.59;2102388;28;46646;-57
2024/02/07 00:44:32;;;;;;;;;8.25;8.00;;;;;16.49;100.00;100735.66;2107416;27;46372;-57
2024/02/07 00:45:34;;;;;;;;;12.00;12.00;;;;;16.53;100.00;100728.34;2115071;27;46339;-57
2024/02/07 00:46:35;;;;;;;;;8.75;8.75;;;;;16.46;100.00;100725.94;2116936;27;46640;-58
2024/02/07 00:47:35;;;;;;;;;12.67;12.67;;;;;16.54;100.00;100720.25;2116252;27;46874;-58
2024/02/07 00:48:35;;;;;;;;;11.00;11.00;;;;;16.55;100.00;100721.13;2114931;27;46351;-57
2024/02/07 00:49:36;;;;;;;;;10.00;9.33;;;;;16.47;100.00;100727.69;2099275;28;46615;-57
2024/02/07 00:50:36;;;;;;;;;10.00;10.00;;;;;16.44;100.00;100732.31;2099302;28;46706;-56
2024/02/07 00:51:36;;;;;;;;;11.00;10.00;;;;;16.42;100.00;100727.03;2113383;27;46520;-57
2024/02/07 00:52:37;;;;;;;;;14.33;12.33;;;;;16.38;100.00;100733.44;2116919;27;46312;-57
2024/02/07 00:53:37;;;;;;;;;10.67;10.00;;;;;16.41;100.00;100727.97;2116649;27;46385;-57
2024/02/07 00:54:38;;;;;;;;;13.00;11.33;;;;;16.40;100.00;100725.38;2090039;28;46810;-58
2024/02/07 00:55:38;;;;;;;;;12.33;11.00;;;;;16.42;100.00;100731.53;2089252;28;46558;-58
2024/02/07 00:56:38;;;;;;;;;10.33;9.67;;;;;16.44;100.00;100724.28;2116641;27;46600;-56
2024/02/07 00:57:40;;;;;;;;;10.00;10.00;;;;;16.42;100.00;100726.16;2117131;27;46644;-56
2024/02/07 00:58:41;;;;;;;;;12.25;9.00;;;;;16.42;100.00;100726.16;2114323;27;46843;-56
2024/02/07 00:59:42;;;;;;;;;10.00;10.00;;;;;16.43;100.00;100726.09;2116681;27;46903;-56
2024/02/07 01:00:42;;;;;;;;;8.00;8.00;;;;;16.43;100.00;100719.88;2117379;27;46041;-57
2024/02/07 01:01:42;;;;;;;;;9.67;9.67;;;;;16.42;100.00;100707.41;2116009;27;46207;-55
2024/02/07 01:02:43;;;;;;;;;8.67;8.33;;;;;16.47;100.00;100714.28;2116040;27;45872;-55
2024/02/07 01:03:43;;;;;;;;;11.33;10.33;;;;;16.51;100.00;100704.28;2116272;27;46193;-57
2024/02/07 01:04:43;;;;;;;;;8.33;8.33;;;;;16.51;100.00;100711.47;2116915;27;46466;-56
2024/02/07 01:05:44;;;;;;;;;10.33;9.33;;;;;16.48;100.00;100705.31;2117277;27;46399;-56
2024/02/07 01:06:44;;;;;;;;;12.33;9.67;;;;;16.51;100.00;100698.06;2115829;27;46554;-57
2024/02/07 01:07:44;;;;;;;;;10.00;10.00;;;;;16.49;100.00;100700.81;2116635;27;46506;-58
2024/02/07 01:08:45;;;;;;;;;9.33;9.00;;;;;16.49;100.00;100706.19;2116440;27;46618;-54
2024/02/07 01:09:45;;;;;;;;;13.33;10.67;;;;;16.48;100.00;100701.75;2116880;27;46654;-57
2024/02/07 01:10:46;;;;;;;;;10.00;8.67;;;;;16.46;100.00;100700.97;2116181;27;46533;-56
2024/02/07 01:11:47;;;;;;;;;12.75;11.75;;;;;16.49;100.00;100699.00;2116488;27;46348;-57
2024/02/07 01:12:47;;;;;;;;;11.00;11.00;;;;;16.50;100.00;100694.50;2116903;27;46745;-58
2024/02/07 01:13:48;;;;;;;;;10.67;9.33;;;;;16.51;100.00;100706.09;2116003;27;46690;-54
2024/02/07 01:14:48;;;;;;;;;6.33;6.00;;;;;16.50;100.00;100691.84;2115462;27;45541;-57
2024/02/07 01:15:48;;;;;;;;;11.00;11.00;;;;;16.52;100.00;100694.47;2116220;27;45764;-58
2024/02/07 01:16:49;;;;;;;;;9.00;9.00;;;;;16.43;100.00;100693.09;2116153;27;46684;-54
2024/02/07 01:17:49;;;;;;;;;8.33;8.33;;;;;16.54;100.00;100697.94;2117001;27;46195;-60
2024/02/07 01:18:51;;;;;;;;;6.33;5.33;;;;;16.44;100.00;100711.75;2115826;27;45974;-57
2024/02/07 01:19:52;;;;;;;;;9.25;9.25;;;;;16.48;100.00;100691.03;2115810;27;46240;-59
2024/02/07 01:20:52;;;;;;;;;10.00;9.75;;;;;16.44;100.00;100695.69;2115680;27;46886;-58
2024/02/07 01:21:53;;;;;;;;;12.00;10.33;;;;;16.45;100.00;100691.19;2097707;28;46189;-57
2024/02/07 01:22:53;;;;;;;;;9.00;8.00;;;;;16.46;100.00;100685.75;2098113;28;46170;-56
2024/02/07 01:23:53;;;;;;;;;9.33;8.00;;;;;16.46;100.00;100687.56;2107184;27;46934;-56
2024/02/07 01:24:55;;;;;;;;;12.33;10.00;;;;;16.47;100.00;100697.34;2107838;27;46637;-55
2024/02/07 01:25:55;;;;;;;;;14.00;12.00;;;;;16.43;100.00;100680.56;2116842;27;46641;-57
2024/02/07 01:26:56;;;;;;;;;10.33;10.00;;;;;16.60;100.00;100678.88;2116182;27;45693;-57
2024/02/07 01:27:56;;;;;;;;;9.50;9.25;;;;;16.67;100.00;100675.91;2116309;27;46899;-55
2024/02/07 01:28:57;;;;;;;;;10.00;9.33;;;;;16.71;100.00;100676.59;2116127;27;46706;-56
2024/02/07 01:29:58;;;;;;;;;11.00;9.00;;;;;16.70;100.00;100681.09;2114592;27;46271;-57
2024/02/07 01:30:58;;;;;;;;;12.00;10.00;;;;;16.67;100.00;100678.56;2116563;27;46005;-57
2024/02/07 01:31:58;;;;;;;;;11.00;9.00;;;;;16.71;100.00;100684.66;2116082;27;46679;-58
2024/02/07 01:32:58;;;;;;;;;13.00;11.33;;;;;16.69;100.00;100665.97;2116662;27;46738;-58
2024/02/07 01:33:59;;;;;;;;;9.00;9.00;;;;;16.53;100.00;100670.28;2096522;28;46321;-57
2024/02/07 01:34:59;;;;;;;;;8.33;6.33;;;;;16.57;100.00;100676.38;2098508;28;46727;-56
2024/02/07 01:35:59;;;;;;;;;12.67;11.00;;;;;16.53;100.00;100672.09;2116277;27;46580;-56
2024/02/07 01:37:00;;;;;;;;;8.00;8.00;;;;;16.48;100.00;100656.22;2116883;27;46237;-57
2024/02/07 01:38:07;;;;;;;;;12.67;12.00;;;;;16.50;100.00;100648.97;2116100;27;46741;-57
2024/02/07 01:39:07;;;;;;;;;9.25;8.75;;;;;16.67;100.00;100666.94;2116145;27;46946;-54
2024/02/07 01:40:13;;;;;;;;;10.50;9.75;;;;;16.71;100.00;100666.75;2115723;27;46571;-58
2024/02/07 01:41:13;;;;;;;;;11.75;9.75;;;;;16.68;100.00;100653.50;2114800;27;46680;-56
2024/02/07 01:42:13;;;;;;;;;11.00;9.33;;;;;16.54;100.00;100664.00;2116991;27;46476;-57
2024/02/07 01:43:14;;;;;;;;;11.00;11.00;;;;;16.64;100.00;100673.34;2116409;27;46208;-57
2024/02/07 01:44:15;;;;;;;;;9.00;7.25;;;;;16.66;100.00;100666.09;2096851;28;46302;-57
2024/02/07 01:45:28;;;;;;;;;6.33;6.33;;;;;16.71;100.00;100668.56;2098092;28;46903;-60
2024/02/07 01:46:29;;;;;;;;;13.00;12.00;;;;;16.70;100.00;100653.44;2114326;27;46578;-55
2024/02/07 01:47:29;;;;;;;;;9.00;9.00;;;;;16.71;100.00;100650.69;2115704;27;46627;-56
2024/02/07 01:48:31;;;;;;;;;11.33;9.33;;;;;16.72;100.00;100647.06;2116481;27;46837;-56
2024/02/07 01:49:31;;;;;;;;;13.75;10.00;;;;;16.74;100.00;100644.28;2114785;27;45776;-55
2024/02/07 01:50:38;;;;;;;;;11.00;9.67;;;;;16.74;100.00;100646.97;2116235;27;46542;-55
2024/02/07 01:51:38;;;;;;;;;9.50;9.00;;;;;16.73;100.00;100643.44;2115469;27;46424;-56
2024/02/07 01:52:44;;;;;;;;;8.33;7.00;;;;;16.75;100.00;100641.53;2116004;27;46589;-57
2024/02/07 01:53:48;;;;;;;;;9.75;9.75;;;;;16.66;100.00;100641.09;2115611;27;46785;-56
2024/02/07 01:54:49;;;;;;;;;8.75;8.25;;;;;16.62;100.00;100642.16;2116015;27;46716;-56
2024/02/07 01:55:51;;;;;;;;;8.75;8.75;;;;;16.73;100.00;100635.38;2115818;27;46971;-54
2024/02/07 01:56:52;;;;;;;;;10.25;9.25;;;;;16.73;100.00;100632.72;2116679;27;46891;-56
2024/02/07 01:57:54;;;;;;;;;10.67;9.33;;;;;16.74;100.00;100642.47;2116106;27;46517;-55
2024/02/07 01:58:55;;;;;;;;;11.25;10.25;;;;;16.74;100.00;100617.50;2116606;27;46750;-56
2024/02/07 01:59:55;;;;;;;;;10.00;9.67;;;;;16.74;100.00;100631.75;2115160;27;46675;-55
2024/02/07 02:00:57;;;;;;;;;11.67;9.67;;;;;16.76;100.00;100639.72;2107168;27;45907;-57
2024/02/07 02:01:57;;;;;;;;;9.75;9.00;;;;;16.74;100.00;100642.47;2107093;27;46873;-57
2024/02/07 02:02:58;;;;;;;;;9.33;8.33;;;;;16.75;100.00;100638.00;2096944;28;46646;-56
2024/02/07 02:03:58;;;;;;;;;11.00;9.33;;;;;16.76;100.00;100634.38;2098114;28;46401;-58
2024/02/07 02:04:59;;;;;;;;;11.33;9.67;;;;;16.76;100.00;100645.94;2106596;27;46781;-55
2024/02/07 02:06:00;;;;;;;;;9.00;9.00;;;;;16.77;100.00;100631.63;2116562;27;46844;-56
2024/02/07 02:07:01;;;;;;;;;11.00;10.00;;;;;16.76;100.00;100642.41;2115931;27;46807;-57
2024/02/07 02:08:02;;;;;;;;;14.33;12.00;;;;;16.75;100.00;100646.91;2115787;27;46426;-56
2024/02/07 02:09:05;;;;;;;;;12.00;9.75;;;;;16.76;100.00;100637.91;2115593;27;46370;-56
2024/02/07 02:10:05;;;;;;;;;10.75;8.75;;;;;16.75;100.00;100638.84;2115388;27;46415;-57
2024/02/07 02:11:10;;;;;;;;;10.33;9.67;;;;;16.75;100.00;100643.34;2116505;27;46639;-53
2024/02/07 02:12:12;;;;;;;;;4.00;4.00;;;;;16.74;100.00;100637.13;2107088;27;46746;-57
2024/02/07 02:13:13;;;;;;;;;11.25;9.50;;;;;16.73;100.00;100632.72;2106894;27;46461;-57
2024/02/07 02:14:13;;;;;;;;;10.00;9.67;;;;;16.72;100.00;100628.28;2116059;27;46617;-53
2024/02/07 02:15:14;;;;;;;;;10.00;10.00;;;;;16.72;100.00;100636.34;2116233;27;46289;-57
2024/02/07 02:16:14;;;;;;;;;10.33;9.33;;;;;16.72;100.00;100630.97;2115091;27;46191;-57
2024/02/07 02:17:14;;;;;;;;;11.33;10.33;;;;;16.70;100.00;100632.00;2114709;27;46331;-57
2024/02/07 02:18:15;;;;;;;;;10.33;10.33;;;;;16.68;100.00;100637.44;2116280;27;46388;-57
2024/02/07 02:19:17;;;;;;;;;9.33;9.33;;;;;16.69;100.00;100628.44;2105504;27;46310;-56
2024/02/07 02:20:19;;;;;;;;;8.75;8.75;;;;;16.71;100.00;100623.00;2105793;27;46931;-57
2024/02/07 02:21:26;;;;;;;;;11.25;9.00;;;;;16.71;100.00;100625.69;2115680;27;46653;-56
2024/02/07 02:22:47;;;;;;;;;13.00;11.50;;;;;16.75;100.00;100632.63;2115164;27;47085;-55
2024/02/07 02:23:50;;;;;;;;;12.50;11.25;;;;;16.72;100.00;100628.28;2116307;27;46677;-56
2024/02/07 02:25:03;;;;;;;;;9.00;9.00;;;;;16.72;100.00;100624.75;2115346;27;46616;-57
2024/02/07 02:26:35;;;;;;;;;9.25;8.75;;;;;16.72;100.00;100622.06;2115904;27;46955;-58
2024/02/07 02:27:52;;;;;;;;;11.50;9.75;;;;;16.70;100.00;100621.28;2106007;27;46169;-56
2024/02/07 02:29:15;;;;;;;;;11.75;11.00;;;;;16.73;100.00;100608.59;2108121;27;46377;-57
2024/02/07 02:30:31;;;;;;;;;10.00;10.00;;;;;16.75;100.00;100619.22;2116243;27;46717;-58
2024/02/07 02:31:34;;;;;;;;;9.75;9.75;;;;;16.74;100.00;100612.13;2116340;27;46397;-58
2024/02/07 02:32:38;;;;;;;;;9.25;8.50;;;;;16.74;100.00;100604.09;2097621;28;46600;-57
2024/02/07 02:33:39;;;;;;;;;10.75;9.50;;;;;16.73;100.00;100599.69;2099356;27;46343;-56
2024/02/07 02:34:40;;;;;;;;;10.00;10.00;;;;;16.72;100.00;100604.19;2116682;27;46595;-56
2024/02/07 02:35:43;;;;;;;;;10.25;9.25;;;;;16.73;100.00;100611.28;2115424;27;46480;-55
2024/02/07 02:36:44;;;;;;;;;10.50;9.00;;;;;16.72;100.00;100603.31;2115407;27;46937;-56
2024/02/07 02:37:45;;;;;;;;;10.67;10.33;;;;;16.75;100.00;100611.19;2113237;27;46609;-56
2024/02/07 02:38:46;;;;;;;;;13.50;12.25;;;;;16.73;100.00;100603.22;2115391;27;46598;-56
2024/02/07 02:39:46;;;;;;;;;10.67;10.67;;;;;16.73;100.00;100592.50;2116336;27;46341;-58
2024/02/07 02:40:48;;;;;;;;;9.67;9.67;;;;;16.74;100.00;100588.88;2115623;27;46790;-58
2024/02/07 02:41:48;;;;;;;;;13.25;12.00;;;;;16.75;100.00;100587.94;2115020;27;46765;-57
2024/02/07 02:42:49;;;;;;;;;10.67;10.67;;;;;16.74;100.00;100596.94;2115871;27;46776;-58
2024/02/07 02:43:49;;;;;;;;;13.00;12.00;;;;;16.75;100.00;100590.63;2115694;27;46249;-56
2024/02/07 02:44:50;;;;;;;;;12.00;11.67;;;;;16.74;100.00;100593.38;2115969;27;46766;-57
2024/02/07 02:45:51;;;;;;;;;11.00;11.00;;;;;16.82;100.00;100590.34;2116148;27;45143;-57
2024/02/07 02:46:52;;;;;;;;;10.75;10.75;;;;;16.80;100.00;100587.72;2115779;27;46661;-58
2024/02/07 02:47:54;;;;;;;;;13.67;12.00;;;;;16.76;100.00;100583.44;2088582;28;46778;-58
2024/02/07 02:48:54;;;;;;;;;11.75;11.75;;;;;16.75;100.00;100587.94;2089977;27;46553;-57
2024/02/07 02:49:55;;;;;;;;;10.00;10.00;;;;;16.74;100.00;100588.03;2116764;27;46407;-57
2024/02/07 02:50:55;;;;;;;;;14.00;14.00;;;;;16.72;100.00;100592.59;2106448;27;46504;-57
2024/02/07 02:51:55;;;;;;;;;11.33;11.33;;;;;16.73;100.00;100583.59;2106147;27;46658;-56
2024/02/07 02:52:58;;;;;;;;;13.00;11.67;;;;;16.72;100.00;100587.22;2115953;27;46185;-55
2024/02/07 02:53:59;;;;;;;;;14.50;11.50;;;;;16.74;100.00;100583.53;2113819;27;46661;-53
2024/02/07 02:54:59;;;;;;;;;11.67;11.33;;;;;16.73;100.00;100579.13;2116273;27;47039;-56
2024/02/07 02:56:02;;;;;;;;;14.00;13.67;;;;;16.71;100.00;100577.47;2115781;27;46628;-56
2024/02/07 02:57:02;;;;;;;;;10.25;10.25;;;;;16.67;100.00;100573.16;2115474;27;46741;-55
2024/02/07 02:58:03;;;;;;;;;10.67;9.67;;;;;16.67;100.00;100574.06;2116306;27;46344;-57
2024/02/07 02:59:05;;;;;;;;;10.00;10.00;;;;;16.67;100.00;100575.84;2115023;27;46576;-56
2024/02/07 03:00:07;;;;;;;;;12.75;11.25;;;;;16.66;100.00;100579.47;2115207;27;46022;-56
2024/02/07 03:01:09;;;;;;;;;11.25;11.25;;;;;16.63;100.00;100569.75;2116982;27;46505;-56
2024/02/07 03:02:10;;;;;;;;;9.00;9.00;;;;;16.60;100.00;100579.75;2108489;27;46792;-55
2024/02/07 03:03:10;;;;;;;;;11.00;10.67;;;;;16.67;100.00;100571.41;2108054;27;46428;-57
2024/02/07 03:04:15;;;;;;;;;12.67;12.67;;;;;16.72;100.00;100566.66;2117270;27;46360;-57
2024/02/07 03:06:50;;;;;;;;;12.75;10.50;;;;;16.75;100.00;100565.63;2117379;27;46758;-56
2024/02/07 03:08:16;;;;;;;;;9.25;9.25;;;;;16.73;100.00;100565.72;2116218;27;46915;-56
2024/02/07 03:09:26;;;;;;;;;10.75;9.75;;;;;16.75;100.00;100565.63;2114341;27;46545;-57
2024/02/07 03:10:26;;;;;;;;;11.50;11.50;;;;;16.71;100.00;100553.34;2117193;27;46749;-57
2024/02/07 03:11:27;;;;;;;;;10.33;10.33;;;;;16.72;100.00;100568.47;2117352;27;45947;-57
2024/02/07 03:12:27;;;;;;;;;12.67;10.33;;;;;16.72;100.00;100550.59;2118011;27;46522;-56
2024/02/07 03:13:28;;;;;;;;;11.33;11.00;;;;;16.72;100.00;100558.63;2116851;27;46345;-57
2024/02/07 03:14:28;;;;;;;;;11.33;9.33;;;;;16.72;100.00;100555.06;2117425;27;46436;-58
2024/02/07 03:15:29;;;;;;;;;11.33;8.00;;;;;16.71;100.00;100551.53;2117077;27;45760;-57
2024/02/07 03:16:29;;;;;;;;;11.33;10.33;;;;;16.72;100.00;100552.41;2117443;27;46504;-56
2024/02/07 03:17:29;;;;;;;;;10.00;9.00;;;;;16.72;100.00;100536.31;2117031;27;46270;-57
2024/02/07 03:18:29;;;;;;;;;10.33;9.00;;;;;16.76;100.00;100549.47;2118415;27;46370;-56
2024/02/07 03:19:30;;;;;;;;;12.33;9.00;;;;;16.78;100.00;100541.38;2116812;27;46219;-56
2024/02/07 03:20:31;;;;;;;;;12.25;10.50;;;;;16.77;100.00;100531.63;2115892;27;47254;-58
2024/02/07 03:21:31;;;;;;;;;10.33;10.00;;;;;16.77;100.00;100543.19;2117490;27;45920;-58
2024/02/07 03:22:32;;;;;;;;;11.33;10.67;;;;;16.66;100.00;100531.25;2117656;27;46455;-57
2024/02/07 03:23:33;;;;;;;;;12.67;10.00;;;;;16.69;100.00;100531.13;2117539;27;46677;-55
2024/02/07 03:24:33;;;;;;;;;10.50;9.50;;;;;16.66;100.00;100534.78;2116662;27;46977;-57
2024/02/07 03:25:36;;;;;;;;;11.00;10.00;;;;;16.63;100.00;100520.66;2114748;27;46165;-57
2024/02/07 03:26:37;;;;;;;;;13.50;10.50;;;;;16.67;100.00;100533.88;2117200;27;46831;-58
2024/02/07 03:27:39;;;;;;;;;10.00;8.75;;;;;16.66;100.00;100528.56;2117478;27;46487;-59
2024/02/07 03:28:41;;;;;;;;;11.00;11.00;;;;;16.64;100.00;100541.16;2118166;27;46507;-53
2024/02/07 03:29:42;;;;;;;;;9.25;9.25;;;;;16.62;100.00;100529.66;2117591;27;46923;-57
2024/02/07 03:30:42;;;;;;;;;10.33;9.33;;;;;16.55;100.00;100526.41;2117474;27;46916;-58
2024/02/07 03:31:43;;;;;;;;;11.33;10.00;;;;;16.63;100.00;100534.91;2117775;27;46742;-58
2024/02/07 03:32:47;;;;;;;;;8.00;8.00;;;;;16.66;100.00;100525.88;2118006;27;46375;-56
2024/02/07 03:33:48;;;;;;;;;7.50;7.50;;;;;16.64;100.00;100517.94;2117624;27;46778;-58
2024/02/07 03:34:48;;;;;;;;;9.00;6.25;;;;;16.75;100.00;100523.63;2116868;27;46615;-58
2024/02/07 03:35:48;;;;;;;;;13.00;11.67;;;;;16.72;100.00;100521.09;2107600;27;46815;-58
2024/02/07 03:36:49;;;;;;;;;12.33;10.33;;;;;16.72;100.00;100520.25;2107547;27;46784;-57
2024/02/07 03:37:49;;;;;;;;;11.00;9.67;;;;;16.74;100.00;100519.22;2117176;27;46194;-57
2024/02/07 03:38:50;;;;;;;;;8.33;8.33;;;;;16.79;100.00;100510.09;2116663;27;46437;-58
2024/02/07 03:39:50;;;;;;;;;10.75;9.50;;;;;16.81;100.00;100498.34;2115499;27;46384;-57
2024/02/07 03:40:51;;;;;;;;;11.33;10.00;;;;;16.65;100.00;100508.94;2106749;27;46912;-55
2024/02/07 03:41:52;;;;;;;;;9.67;8.00;;;;;16.72;100.00;100506.84;2107565;27;46882;-56
2024/02/07 03:42:52;;;;;;;;;10.50;10.50;;;;;16.69;100.00;100498.97;2117073;27;46734;-57
2024/02/07 03:43:52;;;;;;;;;10.33;10.00;;;;;16.59;100.00;100495.84;2116570;27;46522;-56
2024/02/07 03:45:03;;;;;;;;;9.33;9.00;;;;;16.60;100.00;100496.72;2116367;27;46778;-56
2024/02/07 03:46:05;;;;;;;;;11.75;8.50;;;;;16.60;100.00;100494.91;2115668;27;46955;-58
2024/02/07 03:47:06;;;;;;;;;9.00;9.00;;;;;16.67;100.00;100499.03;2112200;27;46430;-58
2024/02/07 03:48:12;;;;;;;;;12.00;10.00;;;;;16.63;100.00;100489.38;2115765;27;46506;-58
2024/02/07 03:49:12;;;;;;;;;10.25;10.25;;;;;16.61;100.00;100490.41;2116240;27;45796;-57
2024/02/07 03:50:16;;;;;;;;;13.33;10.33;;;;;16.60;100.00;100481.50;2098703;28;46332;-56
2024/02/07 03:51:17;;;;;;;;;8.75;8.25;;;;;16.60;100.00;100464.56;2100419;27;46672;-58
2024/02/07 03:52:21;;;;;;;;;11.00;8.67;;;;;16.59;100.00;100486.94;2117665;27;46077;-56
2024/02/07 03:53:22;;;;;;;;;11.00;10.50;;;;;16.57;100.00;100473.63;2117176;27;46578;-57
2024/02/07 03:54:22;;;;;;;;;10.00;10.00;;;;;16.59;100.00;100478.91;2108437;27;45967;-58
2024/02/07 03:55:22;;;;;;;;;9.00;9.00;;;;;16.62;100.00;100466.22;2108291;27;46411;-58
2024/02/07 03:56:23;;;;;;;;;6.00;6.00;;;;;16.69;100.00;100473.03;2116946;27;46657;-58
2024/02/07 03:57:23;;;;;;;;;12.67;10.00;;;;;16.72;100.00;100467.50;2116679;27;47020;-57
2024/02/07 03:58:25;;;;;;;;;13.33;11.00;;;;;16.76;100.00;100473.56;2117484;27;45145;-56
2024/02/07 03:59:25;;;;;;;;;10.75;9.50;;;;;16.77;100.00;100468.16;2115777;27;46746;-56
2024/02/07 04:00:25;;;;;;;;;10.67;9.33;;;;;16.79;100.00;100468.09;2115889;27;46373;-57
2024/02/07 04:01:26;;;;;;;;;8.67;8.67;;;;;16.79;100.00;100461.84;2117228;27;46141;-57
2024/02/07 04:02:26;;;;;;;;;9.33;9.33;;;;;16.79;100.00;100465.41;2116757;27;46044;-57
2024/02/07 04:03:27;;;;;;;;;12.33;9.33;;;;;16.79;100.00;100470.75;2115576;27;46583;-58
2024/02/07 04:04:27;;;;;;;;;11.00;9.00;;;;;16.76;100.00;100455.69;2117563;27;45889;-58
2024/02/07 04:05:27;;;;;;;;;9.33;8.00;;;;;16.75;100.00;100470.03;2116806;27;46321;-56
2024/02/07 04:06:28;;;;;;;;;12.33;10.33;;;;;16.74;100.00;100460.25;2116341;27;46094;-55
2024/02/07 04:07:28;;;;;;;;;11.67;10.33;;;;;16.73;100.00;100477.28;2115941;27;46438;-57
2024/02/07 04:08:29;;;;;;;;;10.67;10.33;;;;;16.76;100.00;100477.13;2116505;27;47042;-57
2024/02/07 04:09:30;;;;;;;;;13.33;13.33;;;;;16.74;100.00;100473.66;2116991;27;46527;-55
2024/02/07 04:10:40;;;;;;;;;11.75;10.00;;;;;16.76;100.00;100468.22;2116506;27;46716;-54
2024/02/07 05:16:11;;;;;;;;;13.00;12.67;;;;;16.59;100.00;100418.16;2116544;27;46135;-55
2024/02/07 05:17:12;;;;;;;;;10.25;9.50;;;;;16.61;100.00;100423.44;2116485;27;46973;-56
2024/02/07 05:18:13;;;;;;;;;12.50;11.75;;;;;16.59;100.00;100415.47;2115687;27;46291;-56
2024/02/07 05:19:13;;;;;;;;;13.33;10.33;;;;;16.59;100.00;100411.94;2114373;27;46943;-57
2024/02/07 05:20:14;;;;;;;;;11.00;11.00;;;;;16.57;100.00;100417.38;2116867;27;47026;-55
2024/02/07 05:21:14;;;;;;;;;11.00;11.00;;;;;16.56;100.00;100412.09;2107508;27;46358;-54
2024/02/07 05:22:16;;;;;;;;;12.00;9.33;;;;;16.56;100.00;100412.09;2105153;27;46720;-55
2024/02/07 05:23:16;;;;;;;;;10.50;10.50;;;;;16.62;100.00;100407.25;2115221;27;46455;-57
2024/02/07 05:24:17;;;;;;;;;11.67;10.67;;;;;16.63;100.00;100409.00;2115467;27;46057;-57
2024/02/07 05:25:18;;;;;;;;;11.00;11.00;;;;;16.63;100.00;100392.06;2116168;27;46321;-58
2024/02/07 05:26:18;;;;;;;;;9.33;9.00;;;;;16.65;100.00;100396.41;2117766;27;46596;-56
2024/02/07 05:27:18;;;;;;;;;11.33;11.00;;;;;16.61;100.00;100397.50;2116655;27;46949;-58
2024/02/07 05:28:19;;;;;;;;;13.00;11.00;;;;;16.58;100.00;100383.41;2116870;27;46547;-58
2024/02/07 05:29:19;;;;;;;;;11.00;9.33;;;;;16.61;100.00;100388.59;2117134;27;46575;-57
2024/02/07 05:30:19;;;;;;;;;12.00;10.67;;;;;16.55;100.00;100395.16;2115987;27;46645;-56
2024/02/07 05:31:20;;;;;;;;;10.67;10.67;;;;;16.54;100.00;100384.53;2116437;27;46877;-57
2024/02/07 05:32:20;;;;;;;;;8.33;8.33;;;;;16.52;100.00;100397.13;2098365;28;46651;-56
2024/02/07 05:33:20;;;;;;;;;12.00;10.00;;;;;16.54;100.00;100404.13;2098744;28;46640;-57
2024/02/07 05:34:20;;;;;;;;;10.00;10.00;;;;;16.56;100.00;100396.88;2116061;27;46809;-57
2024/02/07 05:35:21;;;;;;;;;12.00;11.00;;;;;16.60;100.00;100400.25;2115993;27;46591;-58
2024/02/07 05:36:21;;;;;;;;;9.67;9.67;;;;;16.61;100.00;100402.00;2116564;27;46594;-56
2024/02/07 05:37:22;;;;;;;;;9.00;9.00;;;;;16.62;100.00;100411.75;2116322;27;46621;-58
2024/02/07 05:38:23;;;;;;;;;12.00;10.00;;;;;16.63;100.00;100402.78;2116187;27;46102;-56
2024/02/07 05:39:23;;;;;;;;;10.33;10.33;;;;;16.62;100.00;100401.91;2114681;27;46211;-56
2024/02/07 05:40:24;;;;;;;;;9.67;9.67;;;;;16.64;100.00;100401.81;2115785;27;46259;-56
2024/02/07 05:41:24;;;;;;;;;10.67;10.67;;;;;16.63;100.00;100390.25;2115205;27;46690;-58
2024/02/07 05:42:24;;;;;;;;;7.67;7.67;;;;;16.61;100.00;100399.31;2116646;27;47057;-58
2024/02/07 05:43:25;;;;;;;;;11.00;11.00;;;;;16.74;100.00;100405.81;2107171;27;46742;-57
2024/02/07 05:44:26;;;;;;;;;11.67;11.33;;;;;16.74;100.00;100403.97;2107502;27;46213;-58